PWSweather.com
Personal Weather Stations
Station Observations
SMETHPA
Wilcat Hollow, Upper Marvin Creek, Smethport, PA 16749

Wilcat Hollow, Upper Marvin CreekSmethport, PA 16749

Lat: 41.7178, Lon: -78.5583

Elevation: 1644

Station Type: Davis Vantage Pro 2 Plus

http://www.mckeanweather.com

Latest ConditionsUpdated 5:10:01 PM EST Saturday, Feb 23, 2019
Currently Today's Max Today's Min Today's Average
Temperature 33.9°F1.1°C 39.9°F4.4°C 18.8°F-7.3°C 27.8°F-2.3°C
Dew Point 29.6°F-1.3°C 29.7°F-1.3°C 17.1°F-8.3°C 22.8°F-5.1°C
Winds 2.0 mph NW3.2 kmh NW 5.0 mph -8.0 kmh - - 1.3 mph 2.1 kmh
Wind Gusts 5.0 mph8.0 kmh 14.0 mph22.5 kmh - -
Humidity 84% 96% 57% 83%
Pressure 30.21 in1023.0 mb 30.52 in1033.5 mb 30.21 in1023.0 mb -
Hour Temp Dew Point Humidity Winds Wind Gusts Pressure Precip Precip Rate Daily Precip Total
05:10 PM 33.9°F1.1°C 29.6°F-1.3°C 84% 2.0 mph NW3.2 kmh NW 5.0 mph8.0 kmh 30.21 in1023.0 mb 0.00 in0.0 mm 0.00 in0.0 mm 0.00 in0.0 mm
05:00 PM 33.9°F1.1°C 29.3°F-1.5°C 83% 1.0 mph NW1.6 kmh NW 5.0 mph8.0 kmh 30.22 in1023.4 mb 0.00 in0.0 mm 0.00 in0.0 mm 0.00 in0.0 mm
04:50 PM 33.9°F1.1°C 29.6°F-1.3°C 84% 1.0 mph NW1.6 kmh NW 5.0 mph8.0 kmh 30.23 in1023.7 mb 0.00 in0.0 mm 0.00 in0.0 mm 0.00 in0.0 mm
04:40 PM 34.0°F1.1°C 29.7°F-1.3°C 84% 1.0 mph NNW1.6 kmh NNW 6.0 mph9.7 kmh 30.24 in1024.0 mb 0.00 in0.0 mm 0.00 in0.0 mm 0.00 in0.0 mm
04:30 PM 34.1°F1.2°C 29.5°F-1.4°C 83% 2.0 mph NNW3.2 kmh NNW 5.0 mph8.0 kmh 30.23 in1023.7 mb 0.00 in0.0 mm 0.00 in0.0 mm 0.00 in0.0 mm
04:20 PM 34.2°F1.2°C 29.6°F-1.3°C 83% 2.0 mph NNW3.2 kmh NNW 5.0 mph8.0 kmh 30.23 in1023.7 mb 0.00 in0.0 mm 0.00 in0.0 mm 0.00 in0.0 mm
04:10 PM 34.4°F1.3°C 29.5°F-1.4°C 82% 2.0 mph NW3.2 kmh NW 5.0 mph8.0 kmh 30.23 in1023.7 mb 0.00 in0.0 mm 0.00 in0.0 mm 0.00 in0.0 mm
04:00 PM 34.8°F1.6°C 29.6°F-1.3°C 81% 3.0 mph W4.8 kmh W 8.0 mph12.9 kmh 30.23 in1023.7 mb 0.00 in0.0 mm 0.00 in0.0 mm 0.00 in0.0 mm
03:50 PM 35.1°F1.7°C 29.2°F-1.6°C 79% 3.0 mph N4.8 kmh N 9.0 mph14.5 kmh 30.23 in1023.7 mb 0.00 in0.0 mm 0.00 in0.0 mm 0.00 in0.0 mm
03:40 PM 35.4°F1.9°C 29.5°F-1.4°C 79% 3.0 mph N4.8 kmh N 7.0 mph11.3 kmh 30.24 in1024.0 mb 0.00 in0.0 mm 0.00 in0.0 mm 0.00 in0.0 mm
03:30 PM 35.6°F2.0°C 29.1°F-1.6°C 77% 4.0 mph NNE6.4 kmh NNE 9.0 mph14.5 kmh 30.25 in1024.4 mb 0.00 in0.0 mm 0.00 in0.0 mm 0.00 in0.0 mm
03:20 PM 36.0°F2.2°C 28.8°F-1.8°C 75% 2.0 mph NE3.2 kmh NE 9.0 mph14.5 kmh 30.25 in1024.4 mb 0.00 in0.0 mm 0.00 in0.0 mm 0.00 in0.0 mm
03:10 PM 36.4°F2.4°C 28.6°F-1.9°C 73% 3.0 mph E4.8 kmh E 7.0 mph11.3 kmh 30.26 in1024.7 mb 0.00 in0.0 mm 0.00 in0.0 mm 0.00 in0.0 mm
03:00 PM 36.8°F2.7°C 27.2°F-2.7°C 68% 4.0 mph ENE6.4 kmh ENE 11.0 mph17.7 kmh 30.27 in1025.1 mb 0.00 in0.0 mm 0.00 in0.0 mm 0.00 in0.0 mm
02:50 PM 37.7°F3.2°C 26.6°F-3.0°C 64% 3.0 mph N4.8 kmh N 8.0 mph12.9 kmh 30.27 in1025.1 mb 0.00 in0.0 mm 0.00 in0.0 mm 0.00 in0.0 mm
02:40 PM 37.9°F3.3°C 26.0°F-3.3°C 62% 3.0 mph NW4.8 kmh NW 8.0 mph12.9 kmh 30.27 in1025.1 mb 0.00 in0.0 mm 0.00 in0.0 mm 0.00 in0.0 mm
02:30 PM 38.0°F3.3°C 26.1°F-3.3°C 62% 3.0 mph NE4.8 kmh NE 5.0 mph8.0 kmh 30.28 in1025.4 mb 0.00 in0.0 mm 0.00 in0.0 mm 0.00 in0.0 mm
02:20 PM 38.0°F3.3°C 25.7°F-3.5°C 61% 3.0 mph NNE4.8 kmh NNE 12.0 mph19.3 kmh 30.29 in1025.7 mb 0.00 in0.0 mm 0.00 in0.0 mm 0.00 in0.0 mm
02:10 PM 38.2°F3.4°C 26.3°F-3.2°C 62% 4.0 mph NE6.4 kmh NE 7.0 mph11.3 kmh 30.29 in1025.7 mb 0.00 in0.0 mm 0.00 in0.0 mm 0.00 in0.0 mm
02:00 PM 38.4°F3.6°C 26.1°F-3.3°C 61% 3.0 mph NNE4.8 kmh NNE 8.0 mph12.9 kmh 30.28 in1025.4 mb 0.00 in0.0 mm 0.00 in0.0 mm 0.00 in0.0 mm
01:50 PM 38.4°F3.6°C 25.7°F-3.5°C 60% 4.0 mph NE6.4 kmh NE 8.0 mph12.9 kmh 30.29 in1025.7 mb 0.00 in0.0 mm 0.00 in0.0 mm 0.00 in0.0 mm
01:40 PM 38.6°F3.7°C 25.9°F-3.4°C 60% 4.0 mph NNE6.4 kmh NNE 14.0 mph22.5 kmh 30.30 in1026.1 mb 0.00 in0.0 mm 0.00 in0.0 mm 0.00 in0.0 mm
01:30 PM 39.4°F4.1°C 26.7°F-2.9°C 60% 3.0 mph N4.8 kmh N 10.0 mph16.1 kmh 30.30 in1026.1 mb 0.00 in0.0 mm 0.00 in0.0 mm 0.00 in0.0 mm
01:20 PM 39.7°F4.3°C 26.1°F-3.3°C 58% 3.0 mph N4.8 kmh N 11.0 mph17.7 kmh 30.31 in1026.4 mb 0.00 in0.0 mm 0.00 in0.0 mm 0.00 in0.0 mm
01:10 PM 39.8°F4.3°C 25.8°F-3.4°C 57% 2.0 mph NE3.2 kmh NE 10.0 mph16.1 kmh 30.32 in1026.8 mb 0.00 in0.0 mm 0.00 in0.0 mm 0.00 in0.0 mm
01:00 PM 39.9°F4.4°C 26.3°F-3.2°C 58% 3.0 mph N4.8 kmh N 8.0 mph12.9 kmh 30.32 in1026.8 mb 0.00 in0.0 mm 0.00 in0.0 mm 0.00 in0.0 mm
12:50 PM 39.6°F4.2°C 26.4°F-3.1°C 59% 3.0 mph N4.8 kmh N 7.0 mph11.3 kmh 30.32 in1026.8 mb 0.00 in0.0 mm 0.00 in0.0 mm 0.00 in0.0 mm
12:40 PM 39.1°F3.9°C 26.4°F-3.1°C 60% 2.0 mph NW3.2 kmh NW 8.0 mph12.9 kmh 30.32 in1026.8 mb 0.00 in0.0 mm 0.00 in0.0 mm 0.00 in0.0 mm
12:30 PM 38.8°F3.8°C 26.5°F-3.1°C 61% 2.0 mph NNW3.2 kmh NNW 8.0 mph12.9 kmh 30.33 in1027.1 mb 0.00 in0.0 mm 0.00 in0.0 mm 0.00 in0.0 mm
12:20 PM 38.4°F3.6°C 26.5°F-3.1°C 62% 3.0 mph NE4.8 kmh NE 6.0 mph9.7 kmh 30.34 in1027.4 mb 0.00 in0.0 mm 0.00 in0.0 mm 0.00 in0.0 mm
12:10 PM 38.0°F3.3°C 26.5°F-3.1°C 63% 4.0 mph NNE6.4 kmh NNE 12.0 mph19.3 kmh 30.34 in1027.4 mb 0.00 in0.0 mm 0.00 in0.0 mm 0.00 in0.0 mm
12:00 PM 37.4°F3.0°C 26.3°F-3.2°C 64% 3.0 mph NNE4.8 kmh NNE 10.0 mph16.1 kmh 30.35 in1027.8 mb 0.00 in0.0 mm 0.00 in0.0 mm 0.00 in0.0 mm
11:50 AM 37.5°F3.1°C 26.8°F-2.9°C 65% 3.0 mph NW4.8 kmh NW 6.0 mph9.7 kmh 30.36 in1028.1 mb 0.00 in0.0 mm 0.00 in0.0 mm 0.00 in0.0 mm
11:40 AM 36.8°F2.7°C 26.1°F-3.3°C 65% 4.0 mph NW6.4 kmh NW 10.0 mph16.1 kmh 30.36 in1028.1 mb 0.00 in0.0 mm 0.00 in0.0 mm 0.00 in0.0 mm
11:30 AM 36.7°F2.6°C 26.0°F-3.3°C 65% 3.0 mph W4.8 kmh W 8.0 mph12.9 kmh 30.37 in1028.4 mb 0.00 in0.0 mm 0.00 in0.0 mm 0.00 in0.0 mm
11:20 AM 36.8°F2.7°C 26.1°F-3.3°C 65% 3.0 mph N4.8 kmh N 9.0 mph14.5 kmh 30.38 in1028.8 mb 0.00 in0.0 mm 0.00 in0.0 mm 0.00 in0.0 mm
11:10 AM 36.8°F2.7°C 26.5°F-3.1°C 66% 3.0 mph N4.8 kmh N 7.0 mph11.3 kmh 30.38 in1028.8 mb 0.00 in0.0 mm 0.00 in0.0 mm 0.00 in0.0 mm
11:00 AM 36.5°F2.5°C 26.9°F-2.8°C 68% 2.0 mph NNE3.2 kmh NNE 6.0 mph9.7 kmh 30.39 in1029.1 mb 0.00 in0.0 mm 0.00 in0.0 mm 0.00 in0.0 mm
10:50 AM 35.7°F2.1°C 26.9°F-2.8°C 70% 4.0 mph NE6.4 kmh NE 7.0 mph11.3 kmh 30.39 in1029.1 mb 0.00 in0.0 mm 0.00 in0.0 mm 0.00 in0.0 mm
10:40 AM 34.8°F1.6°C 26.0°F-3.3°C 70% 5.0 mph NE8.0 kmh NE 9.0 mph14.5 kmh 30.39 in1029.1 mb 0.00 in0.0 mm 0.00 in0.0 mm 0.00 in0.0 mm
10:30 AM 34.6°F1.4°C 25.8°F-3.4°C 70% 4.0 mph NE6.4 kmh NE 11.0 mph17.7 kmh 30.40 in1029.5 mb 0.00 in0.0 mm 0.00 in0.0 mm 0.00 in0.0 mm
10:20 AM 34.7°F1.5°C 26.3°F-3.2°C 71% 2.0 mph NNE3.2 kmh NNE 10.0 mph16.1 kmh 30.40 in1029.5 mb 0.00 in0.0 mm 0.00 in0.0 mm 0.00 in0.0 mm
10:10 AM 34.3°F1.3°C 26.9°F-2.8°C 74% 3.0 mph NNE4.8 kmh NNE 5.0 mph8.0 kmh 30.41 in1029.8 mb 0.00 in0.0 mm 0.00 in0.0 mm 0.00 in0.0 mm
10:00 AM 33.5°F0.8°C 27.4°F-2.6°C 78% 2.0 mph N3.2 kmh N 6.0 mph9.7 kmh 30.41 in1029.8 mb 0.00 in0.0 mm 0.00 in0.0 mm 0.00 in0.0 mm
09:50 AM 32.1°F0.1°C 28.1°F-2.2°C 85% 2.0 mph NNE3.2 kmh NNE 6.0 mph9.7 kmh 30.42 in1030.1 mb 0.00 in0.0 mm 0.00 in0.0 mm 0.00 in0.0 mm
09:40 AM 29.9°F-1.2°C 27.9°F-2.3°C 92% 2.0 mph N3.2 kmh N 7.0 mph11.3 kmh 30.42 in1030.1 mb 0.00 in0.0 mm 0.00 in0.0 mm 0.00 in0.0 mm
09:30 AM 28.1°F-2.2°C 27.1°F-2.7°C 96% 1.0 mph N1.6 kmh N 6.0 mph9.7 kmh 30.43 in1030.5 mb 0.00 in0.0 mm 0.00 in0.0 mm 0.00 in0.0 mm
09:20 AM 26.9°F-2.8°C 25.9°F-3.4°C 96% Calm Calm -- 30.43 in1030.5 mb 0.00 in0.0 mm 0.00 in0.0 mm 0.00 in0.0 mm
09:10 AM 26.0°F-3.3°C 25.0°F-3.9°C 96% Calm Calm 2.0 mph3.2 kmh 30.43 in1030.5 mb 0.00 in0.0 mm 0.00 in0.0 mm 0.00 in0.0 mm
09:00 AM 24.6°F-4.1°C 23.6°F-4.7°C 96% Calm Calm 3.0 mph4.8 kmh 30.43 in1030.5 mb 0.00 in0.0 mm 0.00 in0.0 mm 0.00 in0.0 mm
08:50 AM 23.6°F-4.7°C 22.6°F-5.2°C 96% Calm Calm -- 30.43 in1030.5 mb 0.00 in0.0 mm 0.00 in0.0 mm 0.00 in0.0 mm
08:40 AM 22.9°F-5.1°C 21.7°F-5.7°C 95% Calm Calm 2.0 mph3.2 kmh 30.44 in1030.8 mb 0.00 in0.0 mm 0.00 in0.0 mm 0.00 in0.0 mm
08:30 AM 22.0°F-5.6°C 20.8°F-6.2°C 95% Calm Calm 2.0 mph3.2 kmh 30.44 in1030.8 mb 0.00 in0.0 mm 0.00 in0.0 mm 0.00 in0.0 mm
08:20 AM 21.2°F-6.0°C 20.0°F-6.7°C 95% Calm Calm -- 30.44 in1030.8 mb 0.00 in0.0 mm 0.00 in0.0 mm 0.00 in0.0 mm
08:10 AM 20.5°F-6.4°C 19.3°F-7.1°C 95% Calm Calm -- 30.44 in1030.8 mb 0.00 in0.0 mm 0.00 in0.0 mm 0.00 in0.0 mm
08:00 AM 19.9°F-6.7°C 18.5°F-7.5°C 94% Calm Calm -- 30.44 in1030.8 mb 0.00 in0.0 mm 0.00 in0.0 mm 0.00 in0.0 mm
07:50 AM 19.6°F-6.9°C 18.2°F-7.7°C 94% Calm Calm -- 30.44 in1030.8 mb 0.00 in0.0 mm 0.00 in0.0 mm 0.00 in0.0 mm
07:40 AM 19.3°F-7.1°C 17.9°F-7.8°C 94% Calm Calm -- 30.44 in1030.8 mb 0.00 in0.0 mm 0.00 in0.0 mm 0.00 in0.0 mm
07:30 AM 19.1°F-7.2°C 17.7°F-7.9°C 94% Calm Calm -- 30.45 in1031.2 mb 0.00 in0.0 mm 0.00 in0.0 mm 0.00 in0.0 mm
07:20 AM 19.0°F-7.2°C 17.6°F-8.0°C 94% Calm Calm -- 30.45 in1031.2 mb 0.00 in0.0 mm 0.00 in0.0 mm 0.00 in0.0 mm
07:10 AM 19.0°F-7.2°C 17.6°F-8.0°C 94% Calm Calm -- 30.45 in1031.2 mb 0.00 in0.0 mm 0.00 in0.0 mm 0.00 in0.0 mm
07:00 AM 19.0°F-7.2°C 17.6°F-8.0°C 94% Calm Calm -- 30.45 in1031.2 mb 0.00 in0.0 mm 0.00 in0.0 mm 0.00 in0.0 mm
06:50 AM 18.9°F-7.3°C 17.5°F-8.1°C 94% Calm Calm -- 30.45 in1031.2 mb 0.00 in0.0 mm 0.00 in0.0 mm 0.00 in0.0 mm
06:40 AM 18.9°F-7.3°C 17.5°F-8.1°C 94% Calm Calm -- 30.46 in1031.5 mb 0.00 in0.0 mm 0.00 in0.0 mm 0.00 in0.0 mm
06:30 AM 18.8°F-7.3°C 17.4°F-8.1°C 94% Calm Calm -- 30.46 in1031.5 mb 0.00 in0.0 mm 0.00 in0.0 mm 0.00 in0.0 mm
06:20 AM 18.8°F-7.3°C 17.4°F-8.1°C 94% Calm Calm -- 30.46 in1031.5 mb 0.00 in0.0 mm 0.00 in0.0 mm 0.00 in0.0 mm
06:10 AM 18.8°F-7.3°C 17.1°F-8.3°C 93% Calm Calm -- 30.47 in1031.8 mb 0.00 in0.0 mm 0.00 in0.0 mm 0.00 in0.0 mm
06:00 AM 18.9°F-7.3°C 17.2°F-8.2°C 93% Calm Calm -- 30.47 in1031.8 mb 0.00 in0.0 mm 0.00 in0.0 mm 0.00 in0.0 mm
05:50 AM 18.9°F-7.3°C 17.2°F-8.2°C 93% Calm Calm -- 30.47 in1031.8 mb 0.00 in0.0 mm 0.00 in0.0 mm 0.00 in0.0 mm
05:40 AM 18.9°F-7.3°C 17.2°F-8.2°C 93% Calm Calm -- 30.47 in1031.8 mb 0.00 in0.0 mm 0.00 in0.0 mm 0.00 in0.0 mm
05:30 AM 19.0°F-7.2°C 17.3°F-8.2°C 93% Calm Calm -- 30.48 in1032.2 mb 0.00 in0.0 mm 0.00 in0.0 mm 0.00 in0.0 mm
05:20 AM 19.1°F-7.2°C 17.4°F-8.1°C 93% Calm Calm -- 30.49 in1032.5 mb 0.00 in0.0 mm 0.00 in0.0 mm 0.00 in0.0 mm
05:10 AM 19.2°F-7.1°C 17.5°F-8.1°C 93% Calm Calm -- 30.49 in1032.5 mb 0.00 in0.0 mm 0.00 in0.0 mm 0.00 in0.0 mm
05:00 AM 19.3°F-7.1°C 17.6°F-8.0°C 93% Calm Calm -- 30.49 in1032.5 mb 0.00 in0.0 mm 0.00 in0.0 mm 0.00 in0.0 mm
04:50 AM 19.4°F-7.0°C 17.7°F-7.9°C 93% Calm Calm 1.0 mph1.6 kmh 30.49 in1032.5 mb 0.00 in0.0 mm 0.00 in0.0 mm 0.00 in0.0 mm
04:40 AM 19.5°F-6.9°C 17.8°F-7.9°C 93% Calm Calm -- 30.49 in1032.5 mb 0.00 in0.0 mm 0.00 in0.0 mm 0.00 in0.0 mm
04:30 AM 19.5°F-6.9°C 17.8°F-7.9°C 93% Calm Calm -- 30.49 in1032.5 mb 0.00 in0.0 mm 0.00 in0.0 mm 0.00 in0.0 mm
04:20 AM 19.6°F-6.9°C 17.7°F-7.9°C 92% Calm Calm -- 30.50 in1032.8 mb 0.00 in0.0 mm 0.00 in0.0 mm 0.00 in0.0 mm
04:10 AM 19.7°F-6.8°C 17.8°F-7.9°C 92% Calm Calm -- 30.50 in1032.8 mb 0.00 in0.0 mm 0.00 in0.0 mm 0.00 in0.0 mm
04:00 AM 19.9°F-6.7°C 18.0°F-7.8°C 92% Calm Calm -- 30.50 in1032.8 mb 0.00 in0.0 mm 0.00 in0.0 mm 0.00 in0.0 mm
03:50 AM 20.0°F-6.7°C 18.1°F-7.7°C 92% Calm Calm -- 30.49 in1032.5 mb 0.00 in0.0 mm 0.00 in0.0 mm 0.00 in0.0 mm
03:40 AM 20.0°F-6.7°C 18.1°F-7.7°C 92% Calm Calm -- 30.49 in1032.5 mb 0.00 in0.0 mm 0.00 in0.0 mm 0.00 in0.0 mm
03:30 AM 20.2°F-6.6°C 18.2°F-7.7°C 92% Calm Calm -- 30.49 in1032.5 mb 0.00 in0.0 mm 0.00 in0.0 mm 0.00 in0.0 mm
03:20 AM 20.4°F-6.4°C 18.4°F-7.6°C 92% Calm Calm -- 30.49 in1032.5 mb 0.00 in0.0 mm 0.00 in0.0 mm 0.00 in0.0 mm
03:10 AM 20.5°F-6.4°C 18.5°F-7.5°C 92% Calm Calm -- 30.49 in1032.5 mb 0.00 in0.0 mm 0.00 in0.0 mm 0.00 in0.0 mm
03:00 AM 20.6°F-6.3°C 18.6°F-7.4°C 92% Calm Calm -- 30.49 in1032.5 mb 0.00 in0.0 mm 0.00 in0.0 mm 0.00 in0.0 mm
02:50 AM 20.8°F-6.2°C 18.8°F-7.3°C 92% Calm Calm -- 30.49 in1032.5 mb 0.00 in0.0 mm 0.00 in0.0 mm 0.00 in0.0 mm
02:40 AM 20.9°F-6.2°C 18.9°F-7.3°C 92% Calm Calm -- 30.50 in1032.8 mb 0.00 in0.0 mm 0.00 in0.0 mm 0.00 in0.0 mm
02:30 AM 21.1°F-6.1°C 19.1°F-7.2°C 92% Calm Calm -- 30.50 in1032.8 mb 0.00 in0.0 mm 0.00 in0.0 mm 0.00 in0.0 mm
02:20 AM 21.2°F-6.0°C 19.2°F-7.1°C 92% Calm Calm -- 30.51 in1033.2 mb 0.00 in0.0 mm 0.00 in0.0 mm 0.00 in0.0 mm
02:10 AM 21.3°F-5.9°C 19.3°F-7.1°C 92% Calm Calm -- 30.51 in1033.2 mb 0.00 in0.0 mm 0.00 in0.0 mm 0.00 in0.0 mm
02:00 AM 21.5°F-5.8°C 19.5°F-6.9°C 92% Calm Calm -- 30.51 in1033.2 mb 0.00 in0.0 mm 0.00 in0.0 mm 0.00 in0.0 mm
01:50 AM 21.6°F-5.8°C 19.6°F-6.9°C 92% Calm Calm -- 30.51 in1033.2 mb 0.00 in0.0 mm 0.00 in0.0 mm 0.00 in0.0 mm
01:40 AM 21.8°F-5.7°C 19.8°F-6.8°C 92% Calm Calm -- 30.51 in1033.2 mb 0.00 in0.0 mm 0.00 in0.0 mm 0.00 in0.0 mm
01:30 AM 22.0°F-5.6°C 20.0°F-6.7°C 92% Calm Calm -- 30.51 in1033.2 mb 0.00 in0.0 mm 0.00 in0.0 mm 0.00 in0.0 mm
01:20 AM 22.2°F-5.4°C 20.2°F-6.6°C 92% Calm Calm -- 30.52 in1033.5 mb 0.00 in0.0 mm 0.00 in0.0 mm 0.00 in0.0 mm
01:10 AM 22.4°F-5.3°C 20.4°F-6.4°C 92% Calm Calm -- 30.52 in1033.5 mb 0.00 in0.0 mm 0.00 in0.0 mm 0.00 in0.0 mm
01:00 AM 22.5°F-5.3°C 20.5°F-6.4°C 92% Calm Calm -- 30.52 in1033.5 mb 0.00 in0.0 mm 0.00 in0.0 mm 0.00 in0.0 mm
12:50 AM 22.6°F-5.2°C 20.6°F-6.3°C 92% Calm Calm -- 30.52 in1033.5 mb 0.00 in0.0 mm 0.00 in0.0 mm 0.00 in0.0 mm
12:40 AM 22.8°F-5.1°C 20.6°F-6.3°C 91% Calm Calm -- 30.52 in1033.5 mb 0.00 in0.0 mm 0.00 in0.0 mm 0.00 in0.0 mm
12:30 AM 22.9°F-5.1°C 20.7°F-6.3°C 91% Calm Calm -- 30.52 in1033.5 mb 0.00 in0.0 mm 0.00 in0.0 mm 0.00 in0.0 mm
12:20 AM 23.0°F-5.0°C 20.8°F-6.2°C 91% Calm Calm -- 30.52 in1033.5 mb 0.00 in0.0 mm 0.00 in0.0 mm 0.00 in0.0 mm
12:10 AM 23.1°F-4.9°C 20.9°F-6.2°C 91% Calm Calm -- 30.52 in1033.5 mb 0.00 in0.0 mm 0.00 in0.0 mm 0.00 in0.0 mm
12:00 AM 23.2°F-4.9°C 21.0°F-6.1°C 91% Calm Calm -- 30.52 in1033.5 mb 0.00 in0.0 mm 0.00 in0.0 mm 0.00 in0.0 mm